Terminal Aerodrome Forecast
Issued by NWS Charleston, WV

Current Version | Previous Version | Graphics & Text | Print | Product List | Glossary On
Versions: 1 2 3 4 5 6 7 8 9 10 11 12 13 14 15 16 17 18 19 20 21 22 23 24 25
182
FTUS41 KRLX 261740
TAFCRW
TAF
KCRW 261740Z 2618/2718 24011G24KT P6SM BKN040
     FM262000 26012G22KT 4SM TSRA BR BKN030CB BKN080
      TEMPO 2620/2624 27015G35KT 3/4SM +TSRA BR OVC020CB
     FM270400 VRB02KT 4SM SHRA BR BKN025
     FM270900 VRB02KT 3SM -SHRA BR BKN008
     FM271500 VRB03KT 4SM BR BKN015=

USA.gov is the U.S. government's official web portal to all federal, state and local government web resources and services.